createdAt,value
2022-09-13T00:02:53.144Z,96878.06
2022-09-13T00:07:59.986Z,96865.72
2022-09-13T00:13:08.887Z,96869.09
2022-09-13T00:18:12.485Z,96872.78
2022-09-13T00:23:15.908Z,96871.81
2022-09-13T00:28:19.261Z,96874.41
2022-09-13T00:33:22.732Z,96871.81
2022-09-13T00:38:26.132Z,96860.41
2022-09-13T00:43:45.270Z,96874.34
2022-09-13T00:48:53.406Z,96869.41
2022-09-13T00:54:00.090Z,96866.84
2022-09-13T00:59:13.288Z,96874.69
2022-09-13T01:04:19.763Z,96869.75
2022-09-13T01:09:24.196Z,96874.06
2022-09-13T01:14:28.300Z,96878.06
2022-09-13T01:19:32.261Z,96875.34
2022-09-13T01:24:54.107Z,96875.19
2022-09-13T01:30:12.903Z,96869.56
2022-09-13T01:35:21.927Z,96866.03
2022-09-13T01:41:04.888Z,96870.53
2022-09-13T01:46:31.718Z,96858.81
2022-09-13T01:51:44.385Z,96869.56
2022-09-13T01:57:00.843Z,96872.75
2022-09-13T02:02:11.918Z,96863.75
2022-09-13T02:07:22.537Z,96871.03
2022-09-13T02:12:32.147Z,96889.00
2022-09-13T02:17:42.948Z,96874.69
2022-09-13T02:22:52.544Z,96879.34
2022-09-13T02:28:02.588Z,96880.00
2022-09-13T02:33:32.173Z,96879.00
2022-09-13T02:38:49.306Z,96873.88
2022-09-13T02:44:13.435Z,96886.88
2022-09-13T02:49:31.683Z,96884.78
2022-09-13T02:54:53.277Z,96893.59
2022-09-13T02:59:57.436Z,96891.81
2022-09-13T03:05:02.160Z,96901.13
2022-09-13T03:10:09.808Z,96901.13
2022-09-13T03:15:36.657Z,96907.88
2022-09-13T03:21:06.000Z,96902.91
2022-09-13T03:26:40.106Z,96895.06
2022-09-13T03:32:02.909Z,96905.44
2022-09-13T03:37:36.600Z,96896.47
2022-09-13T03:42:43.123Z,96902.56
2022-09-13T03:47:48.792Z,96902.91
2022-09-13T03:52:58.703Z,96907.75
2022-09-13T03:58:10.278Z,96904.50
2022-09-13T04:03:16.813Z,96917.69
2022-09-13T04:08:20.162Z,96922.81
2022-09-13T04:13:23.773Z,96920.88
2022-09-13T04:18:27.206Z,96920.72
2022-09-13T04:23:31.194Z,96922.34
2022-09-13T04:28:34.660Z,96928.78
2022-09-13T04:33:39.199Z,96931.22
2022-09-13T04:38:43.145Z,96941.66
2022-09-13T04:43:50.622Z,96951.13
2022-09-13T04:48:54.320Z,96942.78
2022-09-13T04:53:58.910Z,96953.50
2022-09-13T04:59:02.275Z,96948.78
2022-09-13T05:04:07.121Z,96945.41
2022-09-13T05:09:14.633Z,96952.09
2022-09-13T05:14:18.069Z,96952.44
2022-09-13T05:19:21.245Z,96958.25
2022-09-13T05:24:25.127Z,96961.25
2022-09-13T05:29:28.680Z,96968.72
2022-09-13T05:34:31.931Z,96964.16
2022-09-13T05:39:48.819Z,96969.50
2022-09-13T05:44:59.647Z,96968.28
2022-09-13T05:50:13.546Z,96969.00
2022-09-13T05:55:23.139Z,96975.94
2022-09-13T06:00:26.540Z,96984.56
2022-09-13T06:05:32.000Z,96977.22
2022-09-13T06:10:36.624Z,96980.22
2022-09-13T06:15:43.270Z,96988.94
2022-09-13T06:20:47.971Z,96992.47
2022-09-13T06:25:51.480Z,96990.56
2022-09-13T06:31:04.452Z,96997.75
2022-09-13T06:36:16.367Z,96999.94
2022-09-13T06:41:24.348Z,97003.03
2022-09-13T06:46:33.947Z,97012.84
2022-09-13T06:51:37.605Z,97022.06
2022-09-13T06:56:40.848Z,97028.00
2022-09-13T07:01:44.755Z,97026.81
2022-09-13T07:06:49.971Z,97025.94
2022-09-13T07:11:55.658Z,97028.34
2022-09-13T07:16:59.293Z,97040.81
2022-09-13T07:22:02.592Z,97041.28
2022-09-13T07:27:05.927Z,97029.84
2022-09-13T07:32:09.904Z,97035.47
2022-09-13T07:37:13.395Z,97040.25
2022-09-13T07:42:17.010Z,97035.25
2022-09-13T07:47:20.278Z,97024.94
2022-09-13T07:52:23.825Z,97028.94
2022-09-13T07:57:27.931Z,97029.88
2022-09-13T08:02:31.383Z,97030.34
2022-09-13T08:07:36.290Z,97028.31
2022-09-13T08:12:41.786Z,97026.56
2022-09-13T08:17:45.822Z,97030.34
2022-09-13T08:22:49.232Z,97017.41
2022-09-13T08:27:52.837Z,97021.72
2022-09-13T08:32:56.079Z,97020.00
2022-09-13T08:38:00.640Z,97022.63
2022-09-13T08:43:12.476Z,97013.84
2022-09-13T08:48:21.036Z,97011.78
2022-09-13T08:53:24.232Z,97014.84
2022-09-13T08:58:43.744Z,97004.97
2022-09-13T09:03:57.987Z,97003.13
2022-09-13T09:09:08.735Z,96986.47
2022-09-13T09:14:33.259Z,97003.41
2022-09-13T09:19:39.062Z,97014.44
2022-09-13T09:24:47.847Z,97002.03
2022-09-13T09:29:55.169Z,97006.97
2022-09-13T09:35:07.085Z,97002.50
2022-09-13T09:40:14.036Z,97011.78
2022-09-13T09:45:27.849Z,97020.28
2022-09-13T09:50:38.896Z,97008.59
2022-09-13T09:56:23.661Z,97009.63
2022-09-13T10:01:33.158Z,97016.94
2022-09-13T10:06:41.398Z,97006.69
2022-09-13T10:11:53.945Z,97018.22
2022-09-13T10:17:21.726Z,97010.66
2022-09-13T10:22:26.724Z,97012.50
2022-09-13T10:27:38.662Z,97017.38
2022-09-13T10:32:46.172Z,97019.72
2022-09-13T10:37:50.070Z,97019.69
2022-09-13T10:42:57.500Z,97011.00
2022-09-13T10:48:14.835Z,97011.94
2022-09-13T10:53:36.390Z,97016.47
2022-09-13T10:58:39.700Z,97017.44
2022-09-13T11:03:48.898Z,97018.53
2022-09-13T11:09:10.620Z,97000.38
2022-09-13T11:14:27.109Z,97000.69
2022-09-13T11:19:30.849Z,97001.31
2022-09-13T11:24:34.297Z,96996.25
2022-09-13T11:30:10.416Z,96990.03
2022-09-13T11:35:35.685Z,96988.03
2022-09-13T11:40:47.536Z,96979.47
2022-09-13T11:46:06.300Z,96973.09
2022-09-13T11:51:35.895Z,96982.75
2022-09-13T11:57:02.937Z,96973.88
2022-09-13T12:02:32.617Z,96987.31
2022-09-13T12:08:11.116Z,96973.84
2022-09-13T12:13:25.132Z,96972.03
2022-09-13T12:18:31.879Z,96972.41
2022-09-13T12:23:48.033Z,96965.00
2022-09-13T12:29:16.915Z,96974.50
2022-09-13T12:34:30.442Z,96971.75
2022-09-13T12:39:42.676Z,96978.97
2022-09-13T12:45:14.841Z,96972.91
2022-09-13T12:50:44.668Z,96983.41
2022-09-13T12:56:03.710Z,96988.25
2022-09-13T13:01:12.601Z,96990.28
2022-09-13T13:06:33.921Z,96979.78
2022-09-13T13:11:46.879Z,96994.97
2022-09-13T13:16:50.739Z,96993.00
2022-09-13T13:21:54.267Z,96990.19
2022-09-13T13:26:59.628Z,96993.00
2022-09-13T13:32:02.992Z,96997.59
2022-09-13T13:37:28.563Z,96997.09
2022-09-13T13:42:32.689Z,96987.63
2022-09-13T13:47:35.841Z,96986.03
2022-09-13T13:52:48.576Z,97002.59
2022-09-13T13:58:04.670Z,97004.44
2022-09-13T14:03:25.828Z,96998.59
2022-09-13T14:14:05.650Z,96995.09
2022-09-13T14:19:15.147Z,96996.09
2022-09-13T14:24:21.853Z,96994.41
2022-09-13T14:29:25.869Z,96991.88
2022-09-13T14:34:35.034Z,96990.47
2022-09-13T14:39:38.594Z,96998.78
2022-09-13T14:44:46.891Z,97003.47
2022-09-13T14:50:11.772Z,96999.00
2022-09-13T14:55:24.423Z,97011.50
2022-09-13T15:00:48.791Z,97009.78
2022-09-13T15:06:26.937Z,97015.63
2022-09-13T15:11:36.196Z,97016.19
2022-09-13T15:17:11.219Z,97025.19
2022-09-13T15:22:19.309Z,97015.22
2022-09-13T15:27:43.482Z,97014.88
2022-09-13T15:32:46.779Z,97020.63
2022-09-13T15:38:00.823Z,97017.47
2022-09-13T15:43:04.026Z,97016.69
2022-09-13T15:48:08.031Z,97016.22
2022-09-13T15:53:12.189Z,97023.94
2022-09-13T15:58:15.684Z,97015.13
2022-09-13T16:03:18.950Z,97026.44
2022-09-13T16:08:22.154Z,97020.19
2022-09-13T16:13:25.437Z,97029.25
2022-09-13T16:18:28.812Z,97028.16
2022-09-13T16:23:32.463Z,97029.13
2022-09-13T16:28:36.050Z,97028.84
2022-09-13T16:33:39.420Z,97033.50
2022-09-13T16:38:42.706Z,97035.56
2022-09-13T16:43:45.852Z,97046.50
2022-09-13T16:48:56.285Z,97049.41
2022-09-13T16:53:59.850Z,97049.09
2022-09-13T16:59:03.123Z,97055.69
2022-09-13T17:04:06.404Z,97058.59
2022-09-13T17:09:10.067Z,97067.13
2022-09-13T17:14:14.610Z,97073.25
2022-09-13T17:19:28.533Z,97075.19
2022-09-13T17:24:32.164Z,97079.34
2022-09-13T17:29:36.254Z,97076.47
2022-09-13T17:34:39.579Z,97094.31
2022-09-13T17:39:43.628Z,97098.97
2022-09-13T17:44:47.325Z,97107.50
2022-09-13T17:49:50.557Z,97108.31
2022-09-13T17:54:54.006Z,97108.63
2022-09-13T17:59:58.909Z,97106.53
2022-09-13T18:05:06.450Z,97118.44
2022-09-13T18:10:32.292Z,97127.78
2022-09-13T18:15:35.403Z,97126.16
2022-09-13T18:20:40.744Z,97138.84
2022-09-13T18:25:44.213Z,97139.19
2022-09-13T18:30:59.964Z,97137.25
2022-09-13T18:36:04.954Z,97139.66
2022-09-13T18:41:09.455Z,97136.78
2022-09-13T18:46:16.059Z,97136.44
2022-09-13T18:51:28.004Z,97130.34
2022-09-13T18:56:32.239Z,97132.25
2022-09-13T19:01:38.593Z,97140.63
2022-09-13T19:06:47.143Z,97134.19
2022-09-13T19:11:53.042Z,97136.13
2022-09-13T19:16:59.755Z,97135.47
2022-09-13T19:22:04.577Z,97126.31
2022-09-13T19:27:08.385Z,97133.53
2022-09-13T19:32:12.030Z,97141.91
2022-09-13T19:37:15.468Z,97143.97
2022-09-13T19:42:20.288Z,97139.78
2022-09-13T19:48:12.935Z,97139.31
2022-09-13T19:52:47.143Z,97145.13
2022-09-13T19:57:50.645Z,97144.78
2022-09-13T20:02:55.237Z,97149.13
2022-09-13T20:07:58.548Z,97153.16
2022-09-13T20:13:01.579Z,97149.91
2022-09-13T20:18:04.859Z,97135.59
2022-09-13T20:23:09.061Z,97144.78
2022-09-13T20:28:12.981Z,97140.25
2022-09-13T20:33:16.443Z,97143.91
2022-09-13T20:38:20.690Z,97147.28
2022-09-13T20:43:24.167Z,97145.84
2022-09-13T20:48:27.665Z,97149.38
2022-09-13T20:53:32.601Z,97147.25
2022-09-13T20:58:37.377Z,97148.38
2022-09-13T21:03:43.263Z,97153.38
2022-09-13T21:08:48.897Z,97160.28
2022-09-13T21:13:55.638Z,97160.44
2022-09-13T21:18:59.120Z,97166.91
2022-09-13T21:24:03.361Z,97170.59
2022-09-13T21:29:07.279Z,97169.81
2022-09-13T21:34:16.842Z,97168.38
2022-09-13T21:39:20.384Z,97159.88
2022-09-13T21:44:23.752Z,97166.75
2022-09-13T21:49:27.297Z,97160.63
2022-09-13T21:54:31.133Z,97161.91
2022-09-13T21:59:34.524Z,97164.44
2022-09-13T22:04:39.813Z,97170.22
2022-09-13T22:09:48.118Z,97166.69
2022-09-13T22:14:53.893Z,97163.50
2022-09-13T22:19:56.982Z,97172.31
2022-09-13T22:25:00.130Z,97168.75
2022-09-13T22:30:05.057Z,97162.97
2022-09-13T22:35:09.091Z,97169.75
2022-09-13T22:40:12.805Z,97162.03
2022-09-13T22:45:16.418Z,97159.16
2022-09-13T22:50:20.017Z,97163.69
2022-09-13T22:55:23.580Z,97165.28
2022-09-13T23:00:28.644Z,97166.75
2022-09-13T23:05:32.293Z,97177.16
2022-09-13T23:10:35.697Z,97167.69
2022-09-13T23:15:39.111Z,97166.88
2022-09-13T23:20:42.743Z,97170.09
2022-09-13T23:25:46.211Z,97177.81
2022-09-13T23:30:50.352Z,97172.81
2022-09-13T23:35:57.983Z,97172.75
2022-09-13T23:41:02.408Z,97168.88
2022-09-13T23:46:06.473Z,97178.00
2022-09-13T23:51:12.419Z,97174.63
2022-09-13T23:56:15.647Z,97174.47
